ADDS METAR Data INFO
IDs: Format: Raw Decoded Include TAF

Data at: 0248 UTC 17 Jan 2018

KC62 170235Z AUTO 00000KT 10SM BKN012 M15/M17 A3048 RMK AO2 T11571173
KC62 170215Z AUTO 22005KT 10SM BKN012 M15/M17 A3047 RMK AO2 T11561174
KC62 170155Z AUTO 24004KT 10SM OVC012 M15/M16 A3047 RMK AO2 T11511169
KC62 170135Z AUTO 22003KT 7SM -SN OVC012 M15/M17 A3046 RMK AO2 T11551171
KC62 170115Z AUTO 00000KT 10SM BKN012 M16/M17 A3046 RMK AO2 T11601175
KC62 170055Z AUTO 25003KT 10SM CLR M16/M17 A3046 RMK AO2 T11591174
KC62 170035Z AUTO 26003KT 10SM CLR M15/M17 A3046 RMK AO2 T11571176
KC62 170015Z AUTO 24004KT 10SM CLR M15/M17 A3046 RMK AO2 T11561175
KC62 162355Z AUTO 26003KT 10SM CLR M15/M17 A3045 RMK AO2 T11531175
KC62 162335Z AUTO 24004KT 10SM CLR M15/M17 A3045 RMK AO2 T11501171
KC62 162315Z AUTO 27005KT 10SM CLR M15/M17 A3045 RMK AO2 T11521178
KC62 162255Z AUTO 27007KT 10SM SCT016 SCT020 M15/M17 A3044 RMK AO2 T11501176
KC62 162235Z AUTO 26008KT 7SM -SN BKN016 M13/M16 A3044 RMK AO2 T11371166
KC62 162215Z AUTO 25007KT 4SM -SN OVC018 M13/M16 A3044 RMK AO2 T11331162
KC62 162155Z AUTO 25008KT 7SM -SN BKN018 BKN022 OVC030 M13/M16 A3043 RMK AO2 T11321165
KC62 162135Z AUTO 25008KT 10SM -SN SCT020 BKN030 M13/M16 A3042 RMK AO2 T11321166
KC62 162115Z AUTO 25010KT 10SM SCT030 M12/M16 A3042 RMK AO2 T11281166
KC62 162055Z AUTO 26008KT 10SM CLR M12/M16 A3041 RMK AO2 T11291168
KC62 162035Z AUTO 25006KT 10SM -SN CLR M12/M17 A3041 RMK AO2 T11301170
KC62 162015Z AUTO 24006KT 7SM -SN CLR M13/M17 A3040 RMK AO2 T11301170
KC62 161955Z AUTO 27007KT 10SM -SN SCT034 SCT042 M13/M17 A3040 RMK AO2 T11301172
KC62 161935Z AUTO 25006KT 10SM -SN SCT029 BKN034 BKN042 M13/M17 A3040 RMK AO2 T11341175
KC62 161915Z AUTO 22008KT 10SM SCT040 M13/M17 A3040 RMK AO2 T11361178
KC62 161855Z AUTO 25007KT 10SM SCT040 SCT060 M13/M17 A3040 RMK AO2 T11351177
KC62 161835Z AUTO 21007KT 10SM CLR M13/M17 A3040 RMK AO2 T11391179
KC62 161815Z AUTO 26008KT 10SM CLR M14/M18 A3041 RMK AO2 T11441183
KC62 161755Z AUTO 25007KT 5SM HZ BKN011 M15/M18 A3041 RMK AO2 T11471184
KC62 161735Z AUTO 25006KT 7SM OVC011 M15/M18 A3041 RMK AO2 T11511187
KC62 161715Z AUTO 25005KT 7SM OVC011 M15/M18 A3042 RMK AO2 T11551189
KC62 161655Z AUTO 25008KT 7SM OVC011 M16/M19 A3042 RMK AO2 T11581193
KC62 161635Z AUTO 24007KT 7SM SCT011 BKN026 BKN035 M16/M20 A3043 RMK AO2 T11611196
KC62 161615Z AUTO 24008KT 10SM BKN028 BKN035 M16/M20 A3043 RMK AO2 T11651200
KC62 161555Z AUTO 25008KT 7SM BKN028 OVC035 M16/M20 A3043 RMK AO2 T11651197
KC62 161535Z AUTO 25009KT 5SM HZ OVC033 M16/M20 A3043 RMK AO2 T11691200
KC62 161515Z AUTO 24009KT 5SM HZ BKN033 OVC040 M17/M20 A3043 RMK AO2 T11721200
KC62 161455Z AUTO 25006KT 5SM -SN SCT033 BKN040 OVC050 M17/M20 A3042 RMK AO2 T11751200
KC62 161435Z AUTO 23009KT 7SM SCT048 OVC050 M17/M20 A3041 RMK AO2 T11751200
KC62 161415Z AUTO 25006KT 7SM OVC047 M17/M20 A3041 RMK AO2 T11751200
KC62 161355Z AUTO 23007KT 10SM OVC045 M17/M20 A3040 RMK AO2 T11771200
KC62 161335Z AUTO 24006KT 10SM OVC043 M17/M20 A3040 RMK AO2 T11801201
KC62 161315Z AUTO 23006KT 10SM OVC041 M18/M20 A3040 RMK AO2 T11821203
KC62 161255Z AUTO 21004KT 10SM -SN BKN041 M19/M21 A3040 RMK AO2 T11911210
KC62 161235Z AUTO 23004KT 5SM -SN SCT041 M19/M21 A3040 RMK AO2 T11961215
KC62 161215Z AUTO 22005KT 10SM -SN CLR M19/M21 A3039 RMK AO2 T11951214
KC62 161155Z AUTO 21006KT 10SM SCT040 M19/M21 A3039 RMK AO2 T11911211
KC62 161135Z AUTO 20005KT 10SM OVC040 M18/M20 A3039 RMK AO2 T11861205
KC62 161115Z AUTO 24003KT 10SM OVC040 M18/M20 A3038 RMK AO2 T11851205
KC62 161055Z AUTO 24005KT 10SM OVC040 M18/M20 A3037 RMK AO2 T11821201
KC62 161035Z AUTO 24006KT 10SM OVC040 M17/M20 A3037 RMK AO2 T11791199
KC62 161015Z AUTO 23006KT 10SM BKN040 M17/M19 A3036 RMK AO2 T11771196
KC62 160955Z AUTO 24005KT 10SM SCT040 M18/M20 A3035 RMK AO2 T11811199
KC62 160935Z AUTO 23005KT 10SM CLR M17/M20 A3035 RMK AO2 T11791198
KC62 160915Z AUTO 25009KT 10SM CLR M17/M19 A3035 RMK AO2 T11751195
KC62 160855Z AUTO 25009KT 10SM CLR M17/M18 A3035 RMK AO2 T11721191
KC62 160835Z AUTO 25007KT 10SM CLR M17/M19 A3035 RMK AO2 T11721191
KC62 160815Z AUTO 26008KT 10SM CLR M17/M18 A3034 RMK AO2 T11701190
KC62 160755Z AUTO 25009KT 10SM CLR M16/M18 A3034 RMK AO2 T11671190
KC62 160735Z AUTO 26010KT 10SM SCT013 M16/M18 A3033 RMK AO2 T11601185
KC62 160715Z AUTO 27013G18KT 10SM OVC013 M15/M17 A3032 RMK AO2 T11511176
KC62 160655Z AUTO 27015KT 10SM OVC013 M14/M16 A3032 RMK AO2 T11451167
KC62 160635Z AUTO 25011KT 7SM OVC013 M13/M16 A3032 RMK AO2 T11371161
KC62 160615Z AUTO 27013KT 5SM -SN OVC013 M13/M15 A3031 RMK AO2 T11311155
KC62 160555Z AUTO 26013G17KT 10SM OVC013 M12/M15 A3031 RMK AO2 T11271150
KC62 160535Z AUTO 25008KT 7SM -SN OVC015 M12/M14 A3032 RMK AO2 T11231145
KC62 160515Z AUTO 25011KT 7SM -SN OVC015 M12/M14 A3031 RMK AO2 T11211142
KC62 160455Z AUTO 25012KT 10SM -SN OVC015 M12/M13 A3030 RMK AO2 T11201140
KC62 160435Z AUTO 25010KT 5SM -SN OVC013 M12/M13 A3030 RMK AO2 T11211140
KC62 160415Z AUTO 25009KT 7SM -SN BKN013 BKN044 M11/M13 A3030 RMK AO2 T11161137
KC62 160355Z AUTO 25009KT 10SM -SN BKN015 BKN044 M11/M13 A3029 RMK AO2 T11171138
KC62 160335Z AUTO 26009KT 5SM -SN OVC015 M10/M12 A3029 RMK AO2 T11071128
KC62 160315Z AUTO 25011KT 3SM -SN OVC013 M10/M12 A3028 RMK AO2 T11051123
KC62 160255Z AUTO 25010KT 5SM -SN OVC013 M10/M12 A3028 RMK AO2 T11021121
KC62 160235Z AUTO 24009KT 7SM -SN OVC011 M10/M12 A3028 RMK AO2 T11001120
KC62 160215Z AUTO 24010KT 7SM OVC009 M10/M11 A3027 RMK AO2 T10971115
KC62 160155Z AUTO 24012G15KT 7SM OVC009 M09/M11 A3027 RMK AO2 T10951111
KC62 160135Z AUTO 23014G18KT 10SM OVC009 M08/M10 A3025 RMK AO2 T10851101
KC62 160115Z AUTO 24014KT 7SM OVC009 M07/M08 A3025 RMK AO2 T10751089
KC62 160055Z AUTO 24013KT 10SM OVC009 M06/M07 A3023 RMK AO2 T10591073
KC62 160035Z AUTO 23011KT 7SM BKN011 OVC015 M05/M06 A3022 RMK AO2 T10521065
KC62 160015Z AUTO 20006KT 7SM BKN011 BKN016 OVC024 M05/M06 A3021 RMK AO2 T10551065
KC62 152355Z AUTO 19005KT 7SM -SN BKN013 OVC024 M05/M06 A3021 RMK AO2 T10541065
KC62 152335Z AUTO 19005KT 5SM -SN OVC013 M05/M06 A3021 RMK AO2 T10551065
KC62 152315Z AUTO 19005KT 4SM -SN BKN015 OVC022 M05/M06 A3020 RMK AO2 T10551067
KC62 152255Z AUTO 19004KT 5SM -SN BKN013 OVC019 M05/M06 A3020 RMK AO2 T10551068
KC62 152235Z AUTO 20005KT 3SM -SN OVC011 M05/M07 A3019 RMK AO2 T10541069
KC62 152215Z AUTO 20004KT 4SM -SN OVC011 M05/M07 A3018 RMK AO2 T10551070
KC62 152155Z AUTO 21004KT 3SM -SN OVC013 M05/M07 A3018 RMK AO2 T10551070
KC62 152135Z AUTO 19004KT 3SM -SN OVC013 M05/M07 A3017 RMK AO2 T10551071
KC62 152115Z AUTO 20003KT 5SM -SN OVC013 M05/M07 A3016 RMK AO2 T10551072
KC62 152055Z AUTO 20004KT 4SM -SN OVC013 M05/M07 A3016 RMK AO2 T10561075
KC62 152035Z AUTO 21004KT 3SM -SN OVC011 M05/M07 A3015 RMK AO2 T10561073
KC62 152015Z AUTO 20004KT 5SM -SN OVC011 M06/M07 A3015 RMK AO2 T10581076
KC62 151955Z AUTO 17004KT 5SM -SN OVC011 M06/M07 A3014 RMK AO2 T10601078
KC62 151935Z AUTO 17005KT 4SM -SN OVC013 M06/M07 A3015 RMK AO2 T10601080
KC62 151915Z AUTO 19007KT 2 1/2SM -SN OVC013 M06/M08 A3015 RMK AO2 T10611080
KC62 151855Z AUTO 16006KT 2SM -SN OVC013 M06/M08 A3014 RMK AO2 T10621082
KC62 151835Z AUTO 16005KT 4SM -SN OVC013 M06/M08 A3015 RMK AO2 T10651085
KC62 151815Z AUTO 16007KT 3SM -SN OVC013 M06/M08 A3016 RMK AO2 T10651086
KC62 151755Z AUTO 15005KT 2 1/2SM -SN OVC015 M06/M08 A3017 RMK AO2 T10671088
KC62 151735Z AUTO 16008KT 2SM -SN OVC014 M07/M08 A3018 RMK AO2 T10691090
KC62 151715Z AUTO 15007KT 2SM -SN BKN012 OVC019 M07/M08 A3019 RMK AO2 T10701091
KC62 151655Z AUTO 15009KT 2SM -SN BKN012 BKN021 OVC026 M07/M09 A3020 RMK AO2 T10721092
KC62 151615Z AUTO 14009KT 1 3/4SM -SN SCT010 BKN020 OVC026 M07/M09 A3021 RMK AO2 T10781096
KC62 151555Z AUTO 15009KT 1 1/4SM -SN SCT010 BKN018 OVC023 M08/M10 A3021 RMK AO2 T10801098
KC62 151535Z AUTO 14009KT 1 1/4SM -SN SCT013 OVC020 M08/M10 A3021 RMK AO2 T10831100
KC62 151515Z AUTO 14008KT 1 1/4SM -SN SCT013 BKN021 OVC028 M08/M10 A3022 RMK AO2 T10851100
KC62 151455Z AUTO 13006KT 1 1/2SM -SN SCT010 BKN017 OVC028 M08/M10 A3022 RMK AO2 T10861102